Time;durP1;ratioP1;P1;durP2;ratioP2;P2;SDS_P1;SDS_P2;PMS_P1;PMS_P2;Temp;Humidity;BMP_temperature;BMP_pressure;BME280_temperature;BME280_humidity;BME280_pressure;Samples;Min_cycle;Max_cycle;Signal;HPM_P1;HPM_P2
2022/01/24 00:02:01;;;;;;;7.30;6.60;;;15.50;98.20;;;;;;4209160;28;20553;-77
2022/01/24 00:04:03;;;;;;;6.90;6.30;;;15.50;98.20;;;;;;4210813;28;20267;-78
2022/01/24 00:06:10;;;;;;;7.15;6.45;;;15.50;98.20;;;;;;4196038;28;20214;-78
2022/01/24 00:08:12;;;;;;;7.97;7.00;;;15.50;98.30;;;;;;4201531;28;20735;-78
2022/01/24 00:10:19;;;;;;;7.33;6.63;;;15.50;98.20;;;;;;4199732;28;20260;-78
2022/01/24 00:12:29;;;;;;;8.30;7.50;;;15.50;98.20;;;;;;4202464;28;20241;-78
2022/01/24 00:14:55;;;;;;;7.60;6.90;;;15.40;98.20;;;;;;4210479;28;20272;-78
2022/01/24 00:17:05;;;;;;;7.15;6.45;;;15.40;98.20;;;;;;4206874;28;20235;-78
2022/01/24 00:28:29;;;;;;;7.87;6.80;;;15.40;98.20;;;;;;4211138;28;20210;-78
2022/01/24 00:30:32;;;;;;;7.65;6.93;;;15.40;98.20;;;;;;4206412;28;20554;-78
2022/01/24 00:32:34;;;;;;;7.38;6.68;;;15.40;98.20;;;;;;4212127;28;20745;-78
2022/01/24 00:34:36;;;;;;;8.17;7.37;;;15.40;98.20;;;;;;4206526;28;20207;-78
2022/01/24 00:36:40;;;;;;;7.73;6.97;;;15.40;98.20;;;;;;4211520;28;20233;-78
2022/01/24 00:38:43;;;;;;;7.93;7.22;;;15.40;98.20;;;;;;4213148;28;20601;-77
2022/01/24 00:40:48;;;;;;;7.60;6.80;;;15.40;98.10;;;;;;4202025;28;20261;-78
2022/01/24 00:42:54;;;;;;;7.27;6.57;;;15.40;98.10;;;;;;4209726;28;20215;-77
2022/01/24 00:45:07;;;;;;;8.05;7.25;;;15.40;98.20;;;;;;4200141;28;20203;-77
2022/01/24 00:47:15;;;;;;;7.47;6.78;;;15.40;98.20;;;;;;4210240;28;20241;-77
2022/01/24 00:49:44;;;;;;;7.60;6.90;;;15.40;98.10;;;;;;4205497;28;20281;-77
2022/01/24 00:56:30;;;;;;;7.40;6.70;;;15.40;98.10;;;;;;4209342;28;20206;-77
2022/01/24 00:58:33;;;;;;;7.88;7.07;;;15.50;98.20;;;;;;4210710;28;20611;-74
2022/01/24 01:00:36;;;;;;;7.40;6.70;;;15.40;98.00;;;;;;4209905;28;20226;-75
2022/01/24 01:02:39;;;;;;;7.73;6.97;;;15.40;98.00;;;;;;4211769;28;20267;-75
2022/01/24 01:04:55;;;;;;;7.70;6.75;;;15.40;98.20;;;;;;4195338;28;20659;-77
2022/01/24 01:07:04;;;;;;;7.35;6.65;;;15.40;98.20;;;;;;4210721;28;20203;-77
2022/01/24 01:18:27;;;;;;;8.05;7.25;;;15.30;97.90;;;;;;4213278;28;20198;-77
2022/01/24 01:20:36;;;;;;;8.00;7.20;;;15.40;98.00;;;;;;4212001;28;20294;-77
2022/01/24 01:22:40;;;;;;;7.47;6.77;;;15.40;98.00;;;;;;4200049;28;20222;-77
2022/01/24 01:24:49;;;;;;;6.87;6.17;;;15.40;97.90;;;;;;4212740;28;20257;-77
2022/01/24 01:26:55;;;;;;;7.77;7.07;;;15.40;98.00;;;;;;4208735;28;20621;-77
2022/01/24 01:29:02;;;;;;;7.18;6.47;;;15.30;97.90;;;;;;4211966;28;20252;-77
2022/01/24 01:31:10;;;;;;;7.20;6.50;;;15.40;98.20;;;;;;4212849;28;20248;-77
2022/01/24 01:33:20;;;;;;;7.80;7.07;;;15.30;98.10;;;;;;4200006;28;20238;-77
2022/01/24 01:35:47;;;;;;;7.80;7.05;;;15.30;98.10;;;;;;4205301;28;20759;-77
2022/01/24 01:38:25;;;;;;;7.77;6.97;;;15.40;98.10;;;;;;4204415;28;20284;-77
2022/01/24 01:52:30;;;;;;;7.30;6.57;;;15.30;98.10;;;;;;4199641;28;20187;-77
2022/01/24 01:54:50;;;;;;;7.65;6.95;;;15.30;98.00;;;;;;4195806;28;20257;-77
2022/01/24 01:56:53;;;;;;;7.83;7.03;;;15.30;98.00;;;;;;4211203;28;20629;-77
2022/01/24 01:58:55;;;;;;;7.13;6.43;;;15.30;98.10;;;;;;4213613;28;20207;-77
2022/01/24 02:01:00;;;;;;;7.63;6.83;;;15.30;98.00;;;;;;4210805;28;20604;-78
2022/01/24 02:03:02;;;;;;;7.75;7.03;;;15.30;98.10;;;;;;4208699;28;20687;-78
2022/01/24 02:05:07;;;;;;;7.10;6.40;;;15.30;98.10;;;;;;4208909;28;20210;-78
2022/01/24 02:07:12;;;;;;;7.25;6.65;;;15.30;98.00;;;;;;4199996;28;20656;-77
2022/01/24 02:09:16;;;;;;;7.87;7.07;;;15.30;98.10;;;;;;4203937;28;20249;-78
2022/01/24 02:11:20;;;;;;;8.15;6.88;;;15.30;97.90;;;;;;4206020;28;20252;-78
2022/01/24 02:13:24;;;;;;;7.67;6.93;;;15.30;98.00;;;;;;4205826;28;20601;-78
2022/01/24 02:15:36;;;;;;;7.33;6.60;;;15.30;98.00;;;;;;4202341;28;20211;-78
2022/01/24 02:17:49;;;;;;;7.67;6.97;;;15.30;97.90;;;;;;4204842;28;20287;-79
2022/01/24 02:20:08;;;;;;;7.77;7.00;;;15.30;97.90;;;;;;4207469;28;20659;-79
2022/01/24 02:24:54;;;;;;;7.00;6.30;;;15.30;97.90;;;;;;4158547;28;20215;-78
2022/01/24 02:26:58;;;;;;;7.28;6.55;;;15.30;97.90;;;;;;4158572;28;20724;-78
2022/01/24 02:29:08;;;;;;;7.73;6.80;;;15.30;97.90;;;;;;4161192;28;20212;-79
2022/01/24 02:31:25;;;;;;;7.15;6.45;;;15.20;98.00;;;;;;4212730;28;20218;-79
2022/01/24 02:33:27;;;;;;;7.33;6.63;;;15.20;98.10;;;;;;4205662;28;20219;-78
2022/01/24 02:35:29;;;;;;;7.73;7.03;;;15.30;97.80;;;;;;4209616;28;20751;-78
2022/01/24 02:37:33;;;;;;;8.00;7.20;;;15.30;97.80;;;;;;4210757;28;20227;-78
2022/01/24 02:39:54;;;;;;;7.83;7.07;;;15.20;97.80;;;;;;4205427;28;20210;-79
2022/01/24 02:48:55;;;;;;;7.57;6.87;;;15.30;97.80;;;;;;4211491;28;20644;-78
2022/01/24 02:53:12;;;;;;;7.63;6.93;;;15.20;97.80;;;;;;4197507;28;20203;-75
2022/01/24 02:55:14;;;;;;;7.80;7.00;;;15.20;97.90;;;;;;4200848;28;20256;-76
2022/01/24 02:57:17;;;;;;;7.63;6.90;;;15.20;97.80;;;;;;4204915;28;20292;-76
2022/01/24 02:59:19;;;;;;;7.30;6.60;;;15.20;97.80;;;;;;4202033;28;20590;-75
2022/01/24 03:01:21;;;;;;;7.33;6.63;;;15.30;97.80;;;;;;4208301;28;20663;-76
2022/01/24 03:03:24;;;;;;;7.63;6.93;;;15.30;97.90;;;;;;4206588;28;20227;-75
2022/01/24 03:05:26;;;;;;;8.00;7.20;;;15.30;97.80;;;;;;4211122;28;20666;-76
2022/01/24 03:07:30;;;;;;;6.77;6.17;;;15.20;98.10;;;;;;4201797;28;20211;-76
2022/01/24 03:09:34;;;;;;;7.20;6.60;;;15.30;98.10;;;;;;4197290;28;20266;-76
2022/01/24 03:12:05;;;;;;;7.23;6.53;;;15.20;97.80;;;;;;4209825;28;20245;-76
2022/01/24 03:14:07;;;;;;;7.50;6.70;;;15.20;97.80;;;;;;4204690;28;20210;-76
2022/01/24 03:16:09;;;;;;;6.77;6.13;;;15.30;97.90;;;;;;4198309;28;20718;-76
2022/01/24 03:18:12;;;;;;;7.40;6.70;;;15.20;97.70;;;;;;4210312;28;20637;-75
2022/01/24 03:20:14;;;;;;;7.47;6.40;;;15.20;97.70;;;;;;4202918;28;20215;-76
2022/01/24 03:22:16;;;;;;;7.30;6.57;;;15.20;97.80;;;;;;4208751;28;20226;-76
2022/01/24 03:24:19;;;;;;;7.43;6.73;;;15.20;97.80;;;;;;4210906;28;20211;-75
2022/01/24 03:26:22;;;;;;;7.00;6.30;;;15.20;97.70;;;;;;4202138;28;20582;-75
2022/01/24 03:28:25;;;;;;;7.17;6.47;;;15.20;97.70;;;;;;4210353;28;20218;-75
2022/01/24 03:30:27;;;;;;;6.57;5.97;;;15.20;98.10;;;;;;4194570;28;20219;-76
2022/01/24 03:32:30;;;;;;;7.07;6.38;;;15.20;98.10;;;;;;4205553;28;20222;-76
2022/01/24 03:34:32;;;;;;;8.27;6.90;;;15.20;97.70;;;;;;4203235;28;20222;-75
2022/01/24 03:36:34;;;;;;;7.20;6.50;;;15.20;97.70;;;;;;4200796;28;20234;-76
2022/01/24 03:38:37;;;;;;;7.57;6.77;;;15.20;97.80;;;;;;4205862;28;20238;-76
2022/01/24 03:40:40;;;;;;;6.65;5.95;;;15.20;97.70;;;;;;4195843;28;20262;-79
2022/01/24 03:42:43;;;;;;;7.20;6.50;;;15.20;97.80;;;;;;4191706;28;20738;-78
2022/01/24 03:44:50;;;;;;;6.87;6.23;;;15.20;97.80;;;;;;4200972;28;20213;-78
2022/01/24 03:47:12;;;;;;;6.70;6.10;;;15.20;97.80;;;;;;4205366;28;20264;-79
2022/01/24 03:51:37;;;;;;;6.77;6.17;;;15.20;97.80;;;;;;4197808;28;20746;-79
2022/01/24 03:53:40;;;;;;;7.23;6.53;;;15.20;97.80;;;;;;4196252;28;20625;-78
2022/01/24 03:55:42;;;;;;;7.27;6.57;;;15.20;97.80;;;;;;4202911;28;20280;-78
2022/01/24 03:57:46;;;;;;;6.50;5.90;;;15.20;97.90;;;;;;4201450;28;20264;-79
2022/01/24 03:59:52;;;;;;;7.10;6.40;;;15.10;97.70;;;;;;4199980;28;20663;-78
2022/01/24 04:01:55;;;;;;;7.00;6.40;;;15.20;97.70;;;;;;4201647;28;20268;-78
2022/01/24 04:03:57;;;;;;;6.68;6.03;;;15.10;97.70;;;;;;4198909;28;20245;-79
2022/01/24 04:05:59;;;;;;;7.78;6.82;;;15.10;97.80;;;;;;4202051;28;20708;-78
2022/01/24 04:08:03;;;;;;;7.07;6.37;;;15.20;97.70;;;;;;4199917;28;20621;-79
2022/01/24 04:10:07;;;;;;;6.85;6.18;;;15.10;97.80;;;;;;4201971;28;20210;-78
2022/01/24 04:12:11;;;;;;;7.07;6.37;;;15.20;97.90;;;;;;4208132;28;20264;-78
2022/01/24 04:14:28;;;;;;;6.47;5.88;;;15.20;97.90;;;;;;4209514;28;20260;-79
2022/01/24 04:16:32;;;;;;;7.23;6.57;;;15.10;97.80;;;;;;4203178;28;20620;-78
2022/01/24 04:18:41;;;;;;;7.00;6.30;;;15.20;97.80;;;;;;4201210;28;20707;-78
2022/01/24 04:23:03;;;;;;;7.10;6.32;;;15.10;97.80;;;;;;4202730;28;20227;-78
2022/01/24 04:25:13;;;;;;;7.10;6.40;;;15.10;97.60;;;;;;4210803;28;20211;-78
2022/01/24 04:27:16;;;;;;;6.40;5.80;;;15.10;97.70;;;;;;4207906;28;20214;-78
2022/01/24 04:29:20;;;;;;;6.40;5.80;;;15.10;97.70;;;;;;4209294;28;20219;-78
2022/01/24 04:31:23;;;;;;;7.03;6.32;;;15.10;97.70;;;;;;4199219;28;20249;-78
2022/01/24 04:33:25;;;;;;;6.97;6.27;;;15.10;97.80;;;;;;4202402;28;20258;-78
2022/01/24 04:35:28;;;;;;;6.73;6.13;;;15.10;97.80;;;;;;4200739;28;20285;-78
2022/01/24 04:37:30;;;;;;;6.70;6.10;;;15.10;98.10;;;;;;4195720;28;20241;-78
2022/01/24 04:39:34;;;;;;;6.50;5.88;;;15.10;97.80;;;;;;4194769;28;20317;-75
2022/01/24 04:41:39;;;;;;;7.07;6.17;;;15.10;97.80;;;;;;4195693;28;21050;-76
2022/01/24 04:44:00;;;;;;;6.40;5.80;;;15.10;97.80;;;;;;4194835;28;20211;-76
2022/01/24 04:46:12;;;;;;;7.47;6.77;;;15.10;97.80;;;;;;4194562;28;20219;-76
2022/01/24 04:53:09;;;;;;;6.60;6.00;;;15.10;97.90;;;;;;4167669;28;20253;-76
2022/01/24 04:55:12;;;;;;;6.90;6.20;;;15.10;97.80;;;;;;4198852;28;20211;-76
2022/01/24 04:57:16;;;;;;;6.97;6.27;;;15.10;97.80;;;;;;4194857;28;20215;-75
2022/01/24 04:59:18;;;;;;;6.77;6.07;;;15.10;97.80;;;;;;4193429;28;20227;-76
2022/01/24 05:01:22;;;;;;;6.43;5.80;;;15.10;97.70;;;;;;4197101;28;20285;-76
2022/01/24 05:03:25;;;;;;;6.50;5.90;;;15.10;97.70;;;;;;4195801;28;20680;-76
2022/01/24 05:05:28;;;;;;;6.27;5.67;;;15.10;97.80;;;;;;4195804;28;20214;-75
2022/01/24 05:07:30;;;;;;;7.30;6.13;;;15.10;97.80;;;;;;4197836;28;20219;-75
2022/01/24 05:09:37;;;;;;;6.93;6.23;;;15.10;97.80;;;;;;4190921;28;20223;-75
2022/01/24 05:11:46;;;;;;;6.83;6.23;;;15.10;97.70;;;;;;4195798;28;20215;-76
2022/01/24 05:25:29;;;;;;;6.80;6.10;;;15.10;97.80;;;;;;4194442;28;20198;-75
2022/01/24 05:27:34;;;;;;;6.27;5.67;;;15.00;97.80;;;;;;4194742;28;20219;-76
2022/01/24 05:29:39;;;;;;;6.23;5.63;;;15.00;97.80;;;;;;4196290;28;20224;-76
2022/01/24 05:31:44;;;;;;;6.60;6.00;;;15.00;97.80;;;;;;4191703;28;20253;-76
2022/01/24 05:33:47;;;;;;;6.43;5.83;;;15.00;97.80;;;;;;4195341;28;20253;-76
2022/01/24 05:35:50;;;;;;;6.70;6.00;;;15.00;97.80;;;;;;4202138;28;20280;-75
2022/01/24 05:37:52;;;;;;;6.70;6.10;;;15.00;97.80;;;;;;4209142;28;20606;-75
2022/01/24 05:39:54;;;;;;;6.73;6.03;;;15.00;97.80;;;;;;4212344;28;20282;-75
2022/01/24 05:41:57;;;;;;;6.23;5.63;;;15.10;97.80;;;;;;4209187;28;20227;-75
2022/01/24 05:43:59;;;;;;;6.87;6.13;;;15.00;97.80;;;;;;4210903;28;20247;-75
2022/01/24 05:46:02;;;;;;;6.13;5.53;;;15.00;97.80;;;;;;4213005;28;20276;-75
2022/01/24 05:48:05;;;;;;;6.35;5.70;;;15.00;97.70;;;;;;4210816;28;20359;-75
2022/01/24 05:50:09;;;;;;;6.25;5.65;;;15.00;97.70;;;;;;4212417;28;20586;-75
2022/01/24 05:52:12;;;;;;;6.60;6.00;;;15.10;97.80;;;;;;4227023;27;20217;-75
2022/01/24 05:54:15;;;;;;;6.73;6.10;;;14.90;98.30;;;;;;4208701;28;20695;-75
2022/01/24 05:56:18;;;;;;;6.35;5.75;;;14.60;98.60;;;;;;4228612;27;20264;-75
2022/01/24 05:58:20;;;;;;;6.40;5.80;;;14.50;98.80;;;;;;4226942;28;20266;-75
2022/01/24 06:00:23;;;;;;;7.17;6.40;;;14.50;98.90;;;;;;4235863;27;20245;-75
2022/01/24 06:02:26;;;;;;;6.57;5.87;;;14.60;98.70;;;;;;4226797;28;20621;-75
2022/01/24 06:04:28;;;;;;;6.70;6.00;;;14.80;98.60;;;;;;4228381;27;20213;-75
2022/01/24 06:06:32;;;;;;;6.83;6.03;;;14.90;98.70;;;;;;4229102;27;20213;-75
2022/01/24 06:08:35;;;;;;;6.03;5.43;;;15.10;98.50;;;;;;4229323;27;20270;-75
2022/01/24 06:10:38;;;;;;;7.07;6.35;;;15.20;98.10;;;;;;4227387;27;20221;-75
2022/01/24 06:12:41;;;;;;;7.32;6.63;;;15.20;98.10;;;;;;4226696;28;20221;-75
2022/01/24 06:14:43;;;;;;;7.10;6.40;;;15.30;98.10;;;;;;4235450;27;20229;-75
2022/01/24 06:16:46;;;;;;;7.83;7.10;;;15.30;97.90;;;;;;4231099;27;20596;-76
2022/01/24 06:18:48;;;;;;;7.00;6.30;;;15.40;98.00;;;;;;4244031;27;20357;-75
2022/01/24 06:20:50;;;;;;;6.85;6.18;;;15.40;98.20;;;;;;4239060;27;20214;-75
2022/01/24 06:22:54;;;;;;;6.83;6.23;;;15.40;97.90;;;;;;4225960;28;20684;-75
2022/01/24 06:24:56;;;;;;;7.43;6.43;;;15.40;97.90;;;;;;4228488;28;20255;-75
2022/01/24 06:26:59;;;;;;;6.70;5.97;;;15.50;98.00;;;;;;4241183;27;20606;-76
2022/01/24 06:29:01;;;;;;;8.68;6.05;;;15.50;97.90;;;;;;4244651;27;20344;-75
2022/01/24 06:31:03;;;;;;;6.97;6.20;;;15.50;98.00;;;;;;4228792;27;20619;-75
2022/01/24 06:33:06;;;;;;;7.25;6.55;;;15.50;98.00;;;;;;4241575;27;20658;-75
2022/01/24 06:35:12;;;;;;;6.57;5.90;;;15.50;97.90;;;;;;4229294;27;20555;-75
2022/01/24 06:37:15;;;;;;;8.33;6.57;;;15.60;98.00;;;;;;4212057;28;20215;-74
2022/01/24 06:39:18;;;;;;;7.15;6.28;;;15.60;97.90;;;;;;4210735;28;20238;-75
2022/01/24 06:41:26;;;;;;;7.47;6.68;;;15.60;98.00;;;;;;4210405;28;20214;-75
2022/01/24 06:43:29;;;;;;;7.35;6.65;;;15.60;98.00;;;;;;4211413;28;20218;-75
2022/01/24 06:45:31;;;;;;;7.47;6.45;;;15.60;98.00;;;;;;4212170;28;20233;-75
2022/01/24 06:47:33;;;;;;;7.07;6.33;;;15.70;98.10;;;;;;4224834;28;20221;-75
2022/01/24 06:49:37;;;;;;;6.55;5.95;;;15.70;98.10;;;;;;4217226;28;20215;-75
2022/01/24 06:51:39;;;;;;;7.47;6.65;;;15.70;98.20;;;;;;4211884;28;20256;-76
2022/01/24 06:53:42;;;;;;;6.70;6.00;;;15.70;98.20;;;;;;4213497;28;20283;-75
2022/01/24 06:55:46;;;;;;;7.38;6.43;;;15.70;98.20;;;;;;4209904;28;20269;-75
2022/01/24 06:57:49;;;;;;;6.03;5.43;;;15.70;98.10;;;;;;4206896;28;20218;-75
2022/01/24 06:59:52;;;;;;;6.30;5.70;;;15.70;98.20;;;;;;4206954;28;20285;-75
2022/01/24 07:01:54;;;;;;;6.25;5.65;;;15.70;98.30;;;;;;4213192;28;20226;-75
2022/01/24 07:03:57;;;;;;;7.05;6.32;;;15.80;98.40;;;;;;4211531;28;20218;-75
2022/01/24 07:06:00;;;;;;;6.70;6.10;;;15.70;98.30;;;;;;4222202;28;20267;-75
2022/01/24 07:08:02;;;;;;;7.28;6.22;;;15.80;98.40;;;;;;4209238;28;20272;-75
2022/01/24 07:10:05;;;;;;;6.50;5.90;;;15.80;98.30;;;;;;4211027;28;20222;-75
2022/01/24 07:12:10;;;;;;;7.47;6.00;;;15.80;98.40;;;;;;4211436;28;20613;-75
2022/01/24 07:14:13;;;;;;;6.68;5.97;;;15.80;98.40;;;;;;4210234;28;20210;-75
2022/01/24 07:16:17;;;;;;;6.57;5.90;;;15.80;98.40;;;;;;4210097;28;20268;-75
2022/01/24 07:20:39;;;;;;;6.73;6.03;;;15.80;98.30;;;;;;4218248;28;20218;-75
2022/01/24 07:22:41;;;;;;;8.27;6.30;;;15.80;98.40;;;;;;4211298;28;20206;-76
2022/01/24 07:24:44;;;;;;;7.18;5.68;;;15.80;98.40;;;;;;4211387;28;20223;-75
2022/01/24 07:26:46;;;;;;;5.90;5.40;;;15.90;98.30;;;;;;4211381;28;20230;-75
2022/01/24 07:28:50;;;;;;;6.80;6.10;;;15.80;98.40;;;;;;4224439;28;20611;-76
2022/01/24 07:30:52;;;;;;;6.25;5.65;;;15.80;98.40;;;;;;4214738;28;20210;-76
2022/01/24 07:32:55;;;;;;;6.45;5.72;;;15.90;98.50;;;;;;4207012;28;20284;-75
2022/01/24 07:34:57;;;;;;;6.50;5.72;;;15.90;98.60;;;;;;4208337;28;20742;-76
2022/01/24 07:37:00;;;;;;;6.80;5.95;;;15.90;98.50;;;;;;4210434;28;20858;-75
2022/01/24 07:39:03;;;;;;;6.07;5.57;;;15.90;98.40;;;;;;4210458;28;20203;-75
2022/01/24 07:41:06;;;;;;;6.78;5.72;;;15.90;98.50;;;;;;4206966;28;20234;-75
2022/01/24 07:43:11;;;;;;;6.77;5.87;;;15.90;98.30;;;;;;4211089;28;20210;-75
2022/01/24 07:45:14;;;;;;;6.80;6.07;;;15.90;98.40;;;;;;4211158;28;20210;-75
2022/01/24 07:47:17;;;;;;;6.50;5.90;;;15.90;98.40;;;;;;4208917;28;20288;-75
2022/01/24 07:49:19;;;;;;;6.47;5.88;;;15.90;98.40;;;;;;4209437;28;20311;-75
2022/01/24 07:51:21;;;;;;;6.43;5.53;;;15.90;98.40;;;;;;4211550;28;20210;-75
2022/01/24 07:53:24;;;;;;;6.82;5.80;;;15.90;98.40;;;;;;4211107;28;20272;-76
2022/01/24 07:55:27;;;;;;;7.07;5.78;;;16.00;98.40;;;;;;4210796;28;20260;-76
2022/01/24 07:57:30;;;;;;;9.43;7.30;;;16.00;98.50;;;;;;4207406;28;20215;-75
2022/01/24 07:59:32;;;;;;;7.60;5.85;;;16.00;98.10;;;;;;4205915;28;20671;-75
2022/01/24 08:01:36;;;;;;;7.68;6.70;;;15.80;98.10;;;;;;4203115;28;20620;-77
2022/01/24 08:03:38;;;;;;;8.50;6.15;;;15.90;97.80;;;;;;4183561;28;20222;-75
2022/01/24 08:05:41;;;;;;;8.45;6.10;;;15.90;98.10;;;;;;4196497;28;20256;-74
2022/01/24 08:07:44;;;;;;;8.55;6.05;;;16.10;97.90;;;;;;4196405;28;20214;-74
2022/01/24 08:09:46;;;;;;;9.50;5.97;;;16.20;97.40;;;;;;4192644;28;20222;-74
2022/01/24 08:11:49;;;;;;;8.82;6.55;;;16.40;97.40;;;;;;4193704;28;20265;-74
2022/01/24 08:13:54;;;;;;;7.25;6.25;;;16.60;97.20;;;;;;4193856;28;20265;-74
2022/01/24 08:15:56;;;;;;;6.20;5.60;;;16.70;97.40;;;;;;4193228;28;20206;-76
2022/01/24 08:18:00;;;;;;;6.45;5.85;;;16.90;97.40;;;;;;4197615;28;20730;-77
2022/01/24 08:20:02;;;;;;;6.65;5.85;;;16.90;97.40;;;;;;4190861;28;20207;-75
2022/01/24 08:22:13;;;;;;;6.25;5.22;;;16.90;96.80;;;;;;4186886;28;20219;-77
2022/01/24 08:24:16;;;;;;;6.18;5.20;;;16.80;97.40;;;;;;4195296;28;20276;-75
2022/01/24 08:26:19;;;;;;;6.05;4.70;;;16.90;97.30;;;;;;4198144;28;20227;-75
2022/01/24 08:28:22;;;;;;;5.88;5.03;;;17.00;97.90;;;;;;4197673;28;20730;-74
2022/01/24 08:30:26;;;;;;;5.93;5.22;;;17.10;97.50;;;;;;4197912;28;20266;-73
2022/01/24 08:32:28;;;;;;;5.18;4.68;;;17.20;96.80;;;;;;4188225;28;20215;-74
2022/01/24 08:34:32;;;;;;;6.85;5.15;;;17.30;96.80;;;;;;4194879;28;20261;-74
2022/01/24 08:36:35;;;;;;;5.32;4.82;;;17.30;97.50;;;;;;4202540;28;20234;-74
2022/01/24 08:38:37;;;;;;;5.82;5.03;;;17.30;97.70;;;;;;4206427;28;20280;-74
2022/01/24 08:40:41;;;;;;;5.97;4.95;;;17.40;97.70;;;;;;4207724;28;20292;-77
2022/01/24 08:42:53;;;;;;;10.88;5.32;;;17.40;97.50;;;;;;4203515;28;20223;-78
2022/01/24 08:47:15;;;;;;;4.50;4.05;;;17.40;98.00;;;;;;4205738;28;20214;-78
2022/01/24 08:49:17;;;;;;;6.20;4.47;;;17.60;98.10;;;;;;4209132;28;20268;-78
2022/01/24 08:51:21;;;;;;;5.68;4.07;;;17.60;98.10;;;;;;4228988;28;20217;-76
2022/01/24 08:53:24;;;;;;;8.50;4.53;;;17.70;98.10;;;;;;4227880;27;20222;-75
2022/01/24 08:55:27;;;;;;;7.50;3.95;;;17.70;98.10;;;;;;4226382;28;20229;-76
2022/01/24 08:57:29;;;;;;;6.47;4.82;;;17.70;98.30;;;;;;4229054;28;20271;-78
2022/01/24 08:59:32;;;;;;;5.00;4.50;;;17.70;98.20;;;;;;4228207;28;20715;-75
2022/01/24 09:01:35;;;;;;;4.18;3.70;;;17.70;98.20;;;;;;4227914;28;20641;-75
2022/01/24 09:03:39;;;;;;;5.30;4.50;;;17.80;98.40;;;;;;4232324;27;20703;-76
2022/01/24 09:05:42;;;;;;;4.57;4.07;;;17.80;98.30;;;;;;4244352;27;20277;-78
2022/01/24 09:07:46;;;;;;;4.47;4.07;;;17.90;98.20;;;;;;4230871;27;20218;-76
2022/01/24 09:09:48;;;;;;;4.97;4.18;;;17.90;98.30;;;;;;4236368;27;20235;-74
2022/01/24 09:11:51;;;;;;;4.60;4.20;;;17.90;98.30;;;;;;4223630;27;20271;-78
2022/01/24 09:13:53;;;;;;;5.70;4.32;;;17.90;98.30;;;;;;4230328;27;20321;-75
2022/01/24 09:15:55;;;;;;;5.30;4.80;;;17.90;98.60;;;;;;4219508;27;20218;-74
2022/01/24 09:17:58;;;;;;;11.85;5.28;;;17.90;98.10;;;;;;4223953;28;20219;-75
2022/01/24 09:20:00;;;;;;;7.22;4.20;;;17.80;98.10;;;;;;4221334;27;20214;-75
2022/01/24 09:22:03;;;;;;;9.48;5.43;;;17.90;98.10;;;;;;4225405;27;20291;-77
2022/01/24 09:24:07;;;;;;;12.38;5.65;;;18.00;98.40;;;;;;4225370;27;20209;-76
2022/01/24 09:26:10;;;;;;;6.72;5.07;;;17.90;98.50;;;;;;4224002;27;20571;-78
2022/01/24 09:28:12;;;;;;;5.00;4.30;;;18.00;98.40;;;;;;4226374;27;20271;-81
2022/01/24 09:30:19;;;;;;;10.05;4.75;;;18.10;98.60;;;;;;4225019;27;20213;-83
2022/01/24 09:32:21;;;;;;;10.13;6.15;;;18.00;98.30;;;;;;4226438;27;20715;-79
2022/01/24 09:34:24;;;;;;;8.85;5.82;;;18.00;98.70;;;;;;4224782;28;20616;-78
2022/01/24 09:36:27;;;;;;;6.05;4.40;;;18.00;99.20;;;;;;4225740;27;20295;-77
2022/01/24 09:38:32;;;;;;;12.60;6.25;;;18.10;99.10;;;;;;4221762;27;20209;-76
2022/01/24 09:40:42;;;;;;;13.07;8.18;;;18.20;98.40;;;;;;4224406;28;20234;-84
2022/01/24 09:42:46;;;;;;;41.67;10.52;;;18.00;98.10;;;;;;4226018;27;20221;-78
2022/01/24 09:44:51;;;;;;;21.92;7.72;;;18.10;99.90;;;;;;4229815;27;20250;-77
2022/01/24 09:46:54;;;;;;;16.48;9.35;;;18.20;99.90;;;;;;4223409;28;20270;-76
2022/01/24 09:48:57;;;;;;;11.73;7.93;;;18.10;99.90;;;;;;4213989;27;21649;-76
2022/01/24 09:50:59;;;;;;;20.48;9.77;;;17.90;99.90;;;;;;4190792;28;20293;-77
2022/01/24 09:53:02;;;;;;;21.35;7.20;;;18.10;99.90;;;;;;4192908;28;20245;-79
2022/01/24 09:55:05;;;;;;;14.70;8.52;;;18.20;99.90;;;;;;4194848;28;20223;-77
2022/01/24 09:57:13;;;;;;;13.35;7.15;;;18.20;99.90;;;;;;4192206;28;20269;-87
2022/01/24 09:59:15;;;;;;;9.50;6.90;;;18.30;99.90;;;;;;4191095;28;20280;-81
2022/01/24 10:01:21;;;;;;;8.68;6.15;;;18.30;99.90;;;;;;4189286;28;20287;-83
2022/01/24 10:03:24;;;;;;;9.93;6.15;;;18.40;99.90;;;;;;4189725;28;20313;-79
2022/01/24 10:05:30;;;;;;;13.20;5.88;;;18.40;99.90;;;;;;4194092;28;20276;-77
2022/01/24 10:07:32;;;;;;;8.95;5.82;;;18.40;99.90;;;;;;4192050;28;20219;-79
2022/01/24 10:09:40;;;;;;;9.43;5.20;;;18.50;99.90;;;;;;4193600;28;20276;-82
2022/01/24 10:12:00;;;;;;;9.15;5.60;;;18.50;99.90;;;;;;4195148;28;20210;-79
2022/01/24 10:16:25;;;;;;;7.97;6.00;;;18.60;99.90;;;;;;4193123;28;20195;-82
2022/01/24 10:18:32;;;;;;;8.88;6.53;;;18.60;99.90;;;;;;4195798;28;20257;-84
2022/01/24 10:20:36;;;;;;;7.95;5.80;;;18.60;99.90;;;;;;4195874;28;20360;-80
2022/01/24 10:22:38;;;;;;;8.02;5.65;;;18.60;99.90;;;;;;4191600;28;20227;-81
2022/01/24 10:24:43;;;;;;;7.80;5.72;;;18.60;99.90;;;;;;4189687;28;20269;-79
2022/01/24 10:26:46;;;;;;;12.45;7.53;;;18.60;99.90;;;;;;4149727;28;20223;-78
2022/01/24 10:28:49;;;;;;;12.05;6.93;;;18.60;99.90;;;;;;4186644;28;20272;-77
2022/01/24 10:31:10;;;;;;;9.77;6.45;;;18.60;99.90;;;;;;4185911;28;20204;-77
2022/01/24 10:33:14;;;;;;;8.80;5.35;;;18.70;99.90;;;;;;4191843;28;20211;-77
2022/01/24 10:35:32;;;;;;;8.00;5.85;;;18.70;99.90;;;;;;4188739;28;20563;-77
2022/01/24 10:37:35;;;;;;;9.65;5.40;;;18.70;99.90;;;;;;4191177;28;20268;-78
2022/01/24 10:39:55;;;;;;;8.50;4.93;;;18.80;99.90;;;;;;4192224;28;20683;-79
2022/01/24 10:44:40;;;;;;;5.70;4.72;;;18.70;99.90;;;;;;4190776;28;20242;-78
2022/01/24 10:46:44;;;;;;;7.25;5.20;;;18.80;99.90;;;;;;4187485;28;20869;-77
2022/01/24 10:48:49;;;;;;;6.78;5.18;;;18.80;99.90;;;;;;4187233;28;20207;-79
2022/01/24 10:51:05;;;;;;;6.05;5.15;;;18.90;99.90;;;;;;4195343;28;20621;-79
2022/01/24 10:53:13;;;;;;;7.55;5.32;;;18.90;99.90;;;;;;4191302;28;20326;-75
2022/01/24 10:55:17;;;;;;;8.02;4.80;;;18.80;99.90;;;;;;4187847;28;20223;-76
2022/01/24 10:57:27;;;;;;;8.55;5.80;;;18.80;99.90;;;;;;4193329;28;20223;-77
2022/01/24 10:59:29;;;;;;;7.28;5.82;;;18.80;99.90;;;;;;4192022;28;20268;-77
2022/01/24 11:01:31;;;;;;;8.13;4.82;;;18.90;99.90;;;;;;4194922;28;20576;-78
2022/01/24 11:03:35;;;;;;;6.22;4.80;;;18.90;99.90;;;;;;4191005;28;20276;-77
2022/01/24 11:05:41;;;;;;;9.38;5.38;;;18.90;99.90;;;;;;4191778;28;20218;-78
2022/01/24 11:07:54;;;;;;;5.60;4.95;;;18.90;99.90;;;;;;4191813;28;20222;-79
2022/01/24 11:10:04;;;;;;;7.28;5.05;;;18.90;99.90;;;;;;4193539;28;20215;-77
2022/01/24 11:12:10;;;;;;;9.52;5.22;;;18.90;99.90;;;;;;4193622;28;20280;-76
2022/01/24 11:14:17;;;;;;;6.47;5.30;;;18.90;99.90;;;;;;4192532;28;20256;-73
2022/01/24 11:16:19;;;;;;;7.72;5.32;;;18.90;99.90;;;;;;4186423;28;20215;-73
2022/01/24 11:18:22;;;;;;;6.70;5.18;;;18.90;99.90;;;;;;4187564;28;20215;-74
2022/01/24 11:20:30;;;;;;;6.15;4.60;;;19.00;99.90;;;;;;4190253;28;20215;-75
2022/01/24 11:22:40;;;;;;;7.55;4.80;;;19.10;99.90;;;;;;4186784;28;20330;-75
2022/01/24 11:24:46;;;;;;;8.65;5.40;;;19.10;99.90;;;;;;4183450;28;20223;-75
2022/01/24 11:26:48;;;;;;;9.05;5.75;;;19.00;99.90;;;;;;4185841;28;20261;-74
2022/01/24 11:28:52;;;;;;;7.97;5.10;;;19.10;99.90;;;;;;4188745;28;20219;-75
2022/01/24 11:31:01;;;;;;;9.75;6.00;;;19.20;99.90;;;;;;4187936;28;20274;-72
2022/01/24 11:33:08;;;;;;;6.65;4.82;;;19.20;99.90;;;;;;4187839;28;20219;-74
2022/01/24 11:35:10;;;;;;;8.90;5.13;;;19.20;99.90;;;;;;4189608;28;20211;-73
2022/01/24 11:37:33;;;;;;;7.30;4.80;;;19.30;99.90;;;;;;4189830;28;20837;-75
2022/01/24 11:39:37;;;;;;;9.18;5.55;;;19.30;99.90;;;;;;4187267;28;20219;-75
2022/01/24 11:41:41;;;;;;;5.10;4.60;;;19.30;99.90;;;;;;4190251;28;20230;-74
2022/01/24 11:43:46;;;;;;;7.93;4.93;;;19.30;99.90;;;;;;4191163;28;20227;-74
2022/01/24 11:45:59;;;;;;;6.90;4.93;;;19.30;99.90;;;;;;4186097;28;20281;-74
2022/01/24 11:48:15;;;;;;;5.35;4.65;;;19.30;99.90;;;;;;4187549;28;20219;-74
2022/01/24 11:50:31;;;;;;;5.88;5.18;;;19.30;99.90;;;;;;4183827;28;20215;-74
2022/01/24 11:52:36;;;;;;;8.35;5.40;;;19.30;99.90;;;;;;4190026;28;20252;-75
2022/01/24 11:54:49;;;;;;;5.82;5.18;;;19.50;99.90;;;;;;4189803;28;20267;-76
2022/01/24 11:57:15;;;;;;;9.35;4.75;;;19.50;99.90;;;;;;4188607;28;20610;-76
2022/01/24 11:59:22;;;;;;;5.60;5.03;;;19.40;99.90;;;;;;4186536;28;20216;-76
2022/01/24 12:01:37;;;;;;;6.75;5.50;;;19.40;99.90;;;;;;4185150;28;20684;-76
2022/01/24 12:03:51;;;;;;;6.68;5.03;;;19.40;99.90;;;;;;4191516;28;20230;-75
2022/01/24 12:05:56;;;;;;;9.13;5.60;;;19.40;99.90;;;;;;4190957;28;20222;-74
2022/01/24 12:08:06;;;;;;;6.05;4.80;;;19.50;99.90;;;;;;4191486;28;20206;-75
2022/01/24 12:10:40;;;;;;;7.07;5.50;;;19.50;99.90;;;;;;4189236;28;20219;-75